Dades meteomassalio
Diari Summary for Noviembre 28, 2017 Units:  Metric    English   Both
« Previous Day
Next Day »
Diari Semanal Mensual Anual Personalitzat
  Maxima: Minima: Mijana:
Temperatura: 12.2 °C -6.1 °C 0.5 °C
Rosada: 1.5 °C -7.8 °C -4.3 °C
Humitat: 89 % 46 % 73 %
Velocitat del vent: 22.2 km/h 0.0 km/h 2.9 km/h
Racha vent: 22.2 km/h - -
Vent:- - NW
Pressio: 1027.7 hPa 1015.1 hPa -
Pluja: 0.0 mm    
Historical Graphs
 
 
Tabular Data for Noviembre 28, 2017
Time Temperature Dew Point Pressure Wind Wind Speed Wind Gust Humidity Rainfall Rate (Hourly) solar Conditions
00:02 -2.8 °C -5.6 °C 1027.7 hPa Calm     81 % 0.0 mm 0.0 W/m2 CLR
00:07 -2.8 °C -5.4 °C 1027.3 hPa Calm     82 % 0.0 mm 0.0 W/m2 CLR
00:12 -2.8 °C -5.4 °C 1027.3 hPa Calm     82 % 0.0 mm 0.0 W/m2 CLR
00:17 -2.8 °C -5.4 °C 1027.3 hPa Calm     82 % 0.0 mm 0.0 W/m2 CLR
00:22 -3.3 °C -5.9 °C 1027.3 hPa Calm     82 % 0.0 mm 0.0 W/m2 CLR
00:27 -3.3 °C -5.9 °C 1027.0 hPa Calm     82 % 0.0 mm 0.0 W/m2 CLR
00:32 -3.3 °C -5.9 °C 1027.0 hPa Calm     82 % 0.0 mm 0.0 W/m2 CLR
00:37 -2.8 °C -5.3 °C 1027.0 hPa Calm     83 % 0.0 mm 0.0 W/m2 CLR
00:42 -2.8 °C -5.1 °C 1027.0 hPa Calm     84 % 0.0 mm 0.0 W/m2 CLR
00:47 -2.8 °C -5.3 °C 1027.0 hPa Calm     83 % 0.0 mm 0.0 W/m2 CLR
00:52 -2.8 °C -5.3 °C 1027.0 hPa Calm     83 % 0.0 mm 0.0 W/m2 CLR
00:57 -2.8 °C -5.3 °C 1027.0 hPa Calm     83 % 0.0 mm 0.0 W/m2 CLR
01:02 -3.3 °C -5.7 °C 1027.0 hPa Calm     84 % 0.0 mm 0.0 W/m2 CLR
01:07 -3.3 °C -5.7 °C 1027.0 hPa Calm     84 % 0.0 mm 0.0 W/m2 CLR
01:12 -3.3 °C -5.7 °C 1027.0 hPa Calm     84 % 0.0 mm 0.0 W/m2 CLR
01:17 -3.3 °C -5.7 °C 1027.0 hPa Calm     84 % 0.0 mm 0.0 W/m2 CLR
01:22 -3.3 °C -5.7 °C 1027.0 hPa Calm     84 % 0.0 mm 0.0 W/m2 CLR
01:27 -3.3 °C -5.7 °C 1026.6 hPa Calm     84 % 0.0 mm 0.0 W/m2 CLR
01:32 -3.3 °C -5.7 °C 1026.6 hPa Calm     84 % 0.0 mm 0.0 W/m2 CLR
01:37 -3.3 °C -5.7 °C 1026.6 hPa Calm     84 % 0.0 mm 0.0 W/m2 CLR
01:42 -3.3 °C -5.7 °C 1026.6 hPa Calm     84 % 0.0 mm 0.0 W/m2 CLR
01:47 -3.3 °C -5.7 °C 1026.6 hPa Calm     84 % 0.0 mm 0.0 W/m2 CLR
01:52 -3.3 °C -5.7 °C 1026.3 hPa Calm     84 % 0.0 mm 0.0 W/m2 CLR
01:57 -3.3 °C -5.8 °C 1026.3 hPa Calm     83 % 0.0 mm 0.0 W/m2 CLR
02:02 -3.3 °C -5.7 °C 1026.3 hPa Calm     84 % 0.0 mm 0.0 W/m2 CLR
02:07 -3.3 °C -5.7 °C 1026.3 hPa Calm     84 % 0.0 mm 0.0 W/m2 CLR
02:08 -3.3 °C -5.7 °C 1026.6 hPa Calm     84 % 0.0 mm 0.0 W/m2 CLR
02:13 -3.3 °C -5.8 °C 1026.3 hPa Calm     83 % 0.0 mm 0.0 W/m2 CLR
02:18 -3.3 °C -5.8 °C 1026.3 hPa Calm     83 % 0.0 mm 0.0 W/m2 CLR
02:23 -3.3 °C -5.8 °C 1026.3 hPa Calm     83 % 0.0 mm 0.0 W/m2 CLR
02:28 -3.3 °C -5.7 °C 1026.3 hPa Calm     84 % 0.0 mm 0.0 W/m2 CLR
02:33 -3.3 °C -5.7 °C 1026.3 hPa Calm     84 % 0.0 mm 0.0 W/m2 CLR
02:38 -3.3 °C -5.7 °C 1026.3 hPa Calm     84 % 0.0 mm 0.0 W/m2 CLR
02:43 -3.9 °C -6.2 °C 1026.3 hPa Calm     84 % 0.0 mm 0.0 W/m2 CLR
02:48 -3.9 °C -6.2 °C 1026.3 hPa Calm     84 % 0.0 mm 0.0 W/m2 CLR
02:53 -3.9 °C -6.3 °C 1026.0 hPa Calm     83 % 0.0 mm 0.0 W/m2 CLR
02:58 -3.9 °C -6.3 °C 1026.0 hPa Calm     83 % 0.0 mm 0.0 W/m2 CLR
03:03 -3.9 °C -6.2 °C 1026.0 hPa Calm     84 % 0.0 mm 0.0 W/m2 CLR
03:08 -4.4 °C -6.6 °C 1026.0 hPa Calm     85 % 0.0 mm 0.0 W/m2 CLR
03:13 -4.4 °C -6.6 °C 1026.0 hPa Calm     85 % 0.0 mm 0.0 W/m2 CLR
03:19 -4.4 °C -6.6 °C 1026.0 hPa Calm     85 % 0.0 mm 0.0 W/m2 CLR
03:24 -4.4 °C -6.4 °C 1025.6 hPa Calm     86 % 0.0 mm 0.0 W/m2 CLR
03:29 -4.4 °C -6.4 °C 1026.0 hPa Calm     86 % 0.0 mm 0.0 W/m2 CLR
03:34 -4.4 °C -6.4 °C 1025.6 hPa Calm     86 % 0.0 mm 0.0 W/m2 CLR
03:39 -4.4 °C -6.4 °C 1025.6 hPa Calm     86 % 0.0 mm 0.0 W/m2 CLR
03:44 -4.4 °C -6.4 °C 1025.6 hPa Calm     86 % 0.0 mm 0.0 W/m2 CLR
03:49 -4.4 °C -6.6 °C 1025.3 hPa Calm     85 % 0.0 mm 0.0 W/m2 CLR
03:54 -4.4 °C -6.4 °C 1025.3 hPa Calm     86 % 0.0 mm 0.0 W/m2 CLR
03:59 -4.4 °C -6.4 °C 1025.3 hPa Calm     86 % 0.0 mm 0.0 W/m2 CLR
04:04 -4.4 °C -6.4 °C 1025.3 hPa Calm     86 % 0.0 mm 0.0 W/m2 CLR
04:09 -4.4 °C -6.4 °C 1024.9 hPa Calm     86 % 0.0 mm 0.0 W/m2 CLR
04:14 -5.0 °C -7.0 °C 1024.9 hPa Calm     86 % 0.0 mm 0.0 W/m2 CLR
04:19 -5.0 °C -7.0 °C 1024.9 hPa Calm     86 % 0.0 mm 0.0 W/m2 CLR
04:24 -5.0 °C -7.0 °C 1024.9 hPa Calm     86 % 0.0 mm 0.0 W/m2 CLR
04:29 -5.0 °C -6.8 °C 1024.6 hPa Calm     87 % 0.0 mm 0.0 W/m2 CLR
04:34 -5.0 °C -6.8 °C 1024.6 hPa Calm     87 % 0.0 mm 0.0 W/m2 CLR
04:39 -5.0 °C -6.8 °C 1024.3 hPa Calm     87 % 0.0 mm 0.0 W/m2 CLR
04:44 -5.0 °C -6.8 °C 1024.3 hPa Calm     87 % 0.0 mm 0.0 W/m2 CLR
04:49 -5.0 °C -6.8 °C 1024.3 hPa Calm     87 % 0.0 mm 0.0 W/m2 CLR
04:54 -5.0 °C -7.0 °C 1024.3 hPa Calm     86 % 0.0 mm 0.0 W/m2 CLR
04:59 -5.0 °C -7.0 °C 1024.3 hPa Calm     86 % 0.0 mm 0.0 W/m2 CLR
05:04 -5.0 °C -6.8 °C 1024.3 hPa Calm     87 % 0.0 mm 0.0 W/m2 CLR
05:09 -5.0 °C -6.7 °C 1024.3 hPa Calm     88 % 0.0 mm 0.0 W/m2 CLR
05:14 -5.0 °C -6.7 °C 1023.9 hPa Calm     88 % 0.0 mm 0.0 W/m2 CLR
05:19 -5.0 °C -6.7 °C 1024.3 hPa Calm     88 % 0.0 mm 0.0 W/m2 CLR
05:24 -5.0 °C -6.8 °C 1024.3 hPa Calm     87 % 0.0 mm 0.0 W/m2 CLR
05:29 -5.0 °C -6.8 °C 1024.3 hPa Calm     87 % 0.0 mm 0.0 W/m2 CLR
05:34 -5.0 °C -6.8 °C 1024.3 hPa Calm     87 % 0.0 mm 0.0 W/m2 CLR
05:39 -4.4 °C -6.3 °C 1024.3 hPa Calm     87 % 0.0 mm 0.0 W/m2 CLR
05:44 -4.4 °C -6.1 °C 1024.3 hPa Calm     88 % 0.0 mm 0.0 W/m2 CLR
05:49 -4.4 °C -6.1 °C 1024.3 hPa Calm     88 % 0.0 mm 0.0 W/m2 CLR
05:54 -4.4 °C -6.1 °C 1024.3 hPa Calm     88 % 0.0 mm 0.0 W/m2 CLR
05:59 -4.4 °C -6.1 °C 1024.3 hPa Calm     88 % 0.0 mm 0.0 W/m2 CLR
06:04 -4.4 °C -6.1 °C 1024.3 hPa Calm     88 % 0.0 mm 0.0 W/m2 CLR
06:09 -4.4 °C -6.1 °C 1024.3 hPa Calm     88 % 0.0 mm 0.0 W/m2 CLR
06:14 -5.0 °C -6.7 °C 1024.3 hPa Calm     88 % 0.0 mm 0.0 W/m2 CLR
06:19 -5.0 °C -6.7 °C 1024.3 hPa Calm     88 % 0.0 mm 0.0 W/m2 CLR
06:24 -5.0 °C -6.7 °C 1024.3 hPa Calm     88 % 0.0 mm 0.0 W/m2 CLR
06:29 -5.0 °C -6.7 °C 1024.3 hPa Calm     88 % 0.0 mm 0.0 W/m2 CLR
06:34 -5.6 °C -7.2 °C 1024.3 hPa Calm     88 % 0.0 mm 0.0 W/m2 CLR
06:39 -5.6 °C -7.2 °C 1024.3 hPa Calm     88 % 0.0 mm 0.0 W/m2 CLR
06:44 -5.6 °C -7.2 °C 1024.3 hPa Calm     88 % 0.0 mm 0.0 W/m2 CLR
06:49 -5.6 °C -7.2 °C 1024.3 hPa Calm     88 % 0.0 mm 0.0 W/m2 CLR
06:54 -5.6 °C -7.2 °C 1024.3 hPa Calm     88 % 0.0 mm 0.0 W/m2 CLR
06:59 -5.6 °C -7.2 °C 1024.3 hPa Calm     88 % 0.0 mm 0.0 W/m2 CLR
07:04 -6.1 °C -7.6 °C 1023.9 hPa Calm     89 % 0.0 mm 0.0 W/m2 CLR
07:09 -6.1 °C -7.8 °C 1023.9 hPa Calm     88 % 0.0 mm 0.0 W/m2 CLR
07:14 -5.6 °C -7.2 °C 1023.9 hPa Calm     88 % 0.0 mm 0.0 W/m2 CLR
07:19 -5.6 °C -7.2 °C 1023.9 hPa Calm     88 % 0.0 mm 0.0 W/m2 CLR
07:24 -5.6 °C -7.2 °C 1023.9 hPa Calm     88 % 0.0 mm 0.0 W/m2 CLR
07:29 -5.6 °C -7.2 °C 1023.9 hPa Calm     88 % 0.0 mm 0.0 W/m2 CLR
07:34 -5.6 °C -7.1 °C 1023.9 hPa Calm     89 % 0.0 mm 0.0 W/m2 CLR
07:39 -5.6 °C -7.1 °C 1023.9 hPa Calm     89 % 0.0 mm 0.0 W/m2 CLR
07:44 -5.6 °C -7.1 °C 1023.9 hPa Calm     89 % 0.0 mm 0.0 W/m2 CLR
07:49 -5.6 °C -7.1 °C 1023.9 hPa Calm     89 % 0.0 mm 0.0 W/m2 CLR
07:54 -5.6 °C -7.2 °C 1023.9 hPa Calm     88 % 0.0 mm 0.0 W/m2 CLR
07:59 -5.6 °C -7.1 °C 1023.9 hPa Calm     89 % 0.0 mm 0.0 W/m2 CLR
08:04 -5.6 °C -7.2 °C 1024.3 hPa Calm     88 % 0.0 mm 5.0 W/m2 OVC
08:09 -5.6 °C -7.1 °C 1024.3 hPa Calm     89 % 0.0 mm 7.0 W/m2 OVC
08:14 -5.6 °C -7.1 °C 1024.3 hPa Calm     89 % 0.0 mm 9.0 W/m2 BKN
08:19 -5.6 °C -7.1 °C 1024.3 hPa Calm     89 % 0.0 mm 11.0 W/m2 BKN
08:24 -5.6 °C -7.2 °C 1024.3 hPa Calm     88 % 0.0 mm 12.0 W/m2 BKN
08:29 -6.1 °C -7.8 °C 1023.9 hPa Calm     88 % 0.0 mm 16.0 W/m2 BKN
08:34 -5.6 °C -7.1 °C 1024.3 hPa Calm     89 % 0.0 mm 21.0 W/m2 BKN
08:39 -5.6 °C -7.1 °C 1023.9 hPa Calm     89 % 0.0 mm 23.0 W/m2 BKN
08:44 -5.6 °C -7.2 °C 1023.9 hPa Calm     88 % 0.0 mm 44.0 W/m2 BKN
08:49 -5.6 °C -7.1 °C 1023.9 hPa Calm     89 % 0.0 mm 44.0 W/m2 BKN
08:54 -5.6 °C -7.2 °C 1023.9 hPa Calm     88 % 0.0 mm 65.0 W/m2 SCT
08:59 -5.6 °C -7.2 °C 1023.9 hPa Calm     88 % 0.0 mm 74.0 W/m2 FEW
09:04 -5.6 °C -7.4 °C 1024.3 hPa Calm     87 % 0.0 mm 76.0 W/m2 FEW
09:09 -5.0 °C -6.8 °C 1024.3 hPa Calm     87 % 0.0 mm 32.0 W/m2 FEW
09:14 -5.0 °C -7.0 °C 1024.3 hPa Calm     86 % 0.0 mm 25.0 W/m2 BKN
09:19 -5.0 °C -7.1 °C 1023.9 hPa Calm     85 % 0.0 mm 26.0 W/m2 BKN
09:24 -4.4 °C -6.6 °C 1024.3 hPa Calm     85 % 0.0 mm 102.0 W/m2 BKN
09:29 -4.4 °C -6.4 °C 1024.3 hPa Calm     86 % 0.0 mm 130.0 W/m2 SCT
09:34 -4.4 °C -6.4 °C 1024.3 hPa Calm     86 % 0.0 mm 118.0 W/m2 CLR
09:39 -3.9 °C -5.9 °C 1024.3 hPa Calm     86 % 0.0 mm 186.0 W/m2 CLR
09:45 -3.9 °C -5.9 °C 1023.9 hPa Calm     86 % 0.0 mm 135.0 W/m2 CLR
09:50 -3.3 °C -5.7 °C 1023.9 hPa Calm     84 % 0.0 mm 204.0 W/m2 CLR
09:55 -3.3 °C -5.8 °C 1023.9 hPa Calm     83 % 0.0 mm 169.0 W/m2 CLR
10:00 -2.8 °C -5.3 °C 1023.9 hPa Calm     83 % 0.0 mm 246.0 W/m2 CLR
10:05 -2.2 °C -4.9 °C 1023.9 hPa Calm     82 % 0.0 mm 257.0 W/m2 CLR
10:10 -2.2 °C -5.4 °C 1023.9 hPa Calm     79 % 0.0 mm 269.0 W/m2 CLR
10:15 -1.7 °C -5.0 °C 1023.9 hPa Calm     78 % 0.0 mm 279.0 W/m2 CLR
10:20 -1.7 °C -5.2 °C 1023.9 hPa Calm     77 % 0.0 mm 288.0 W/m2 CLR
10:25 -1.1 °C -5.0 °C 1023.9 hPa Calm     75 % 0.0 mm 301.0 W/m2 CLR
10:30 -0.6 °C -4.4 °C 1023.9 hPa Calm     75 % 0.0 mm 309.0 W/m2 CLR
10:35 0.0 °C -4.1 °C 1023.9 hPa Calm     74 % 0.0 mm 320.0 W/m2 CLR
10:40 0.6 °C -3.7 °C 1023.9 hPa Calm     73 % 0.0 mm 329.0 W/m2 CLR
10:45 1.1 °C -3.4 °C 1023.9 hPa Calm     72 % 0.0 mm 339.0 W/m2 CLR
10:50 1.7 °C -3.1 °C 1023.9 hPa Calm     71 % 0.0 mm 348.0 W/m2 CLR
10:55 2.8 °C -2.2 °C 1023.6 hPa Calm     70 % 0.0 mm 355.0 W/m2 CLR
11:00 3.3 °C -2.0 °C 1023.6 hPa Calm     68 % 0.0 mm 364.0 W/m2 CLR
11:05 3.9 °C -1.7 °C 1023.6 hPa Calm     67 % 0.0 mm 373.0 W/m2 CLR
11:10 4.4 °C -1.2 °C 1023.6 hPa Calm     67 % 0.0 mm 380.0 W/m2 CLR
11:15 4.4 °C -1.6 °C 1023.6 hPa Calm     65 % 0.0 mm 387.0 W/m2 CLR
11:20 5.0 °C -1.3 °C 1023.2 hPa Calm     64 % 0.0 mm 392.0 W/m2 CLR
11:25 5.6 °C -1.2 °C 1023.2 hPa Calm     62 % 0.0 mm 397.0 W/m2 CLR
11:30 5.6 °C -2.1 °C 1023.2 hPa NNW 3.2 km/h 3.2 km/h 58 % 0.0 mm 406.0 W/m2 CLR
11:35 6.1 °C -2.5 °C 1023.2 hPa NNW 13.0 km/h 13.0 km/h 54 % 0.0 mm 411.0 W/m2 CLR
11:40 6.7 °C -2.5 °C 1022.9 hPa NW 18.5 km/h 18.5 km/h 52 % 0.0 mm 415.0 W/m2 CLR
11:45 7.8 °C -1.2 °C 1022.9 hPa NW 14.8 km/h 14.8 km/h 53 % 0.0 mm 420.0 W/m2 CLR
11:50 8.9 °C -0.7 °C 1022.6 hPa NW 14.8 km/h 14.8 km/h 51 % 0.0 mm 425.0 W/m2 CLR
11:55 8.9 °C -0.4 °C 1022.6 hPa North 14.5 km/h 14.5 km/h 52 % 0.0 mm 429.0 W/m2 CLR
12:00 9.4 °C -0.2 °C 1022.6 hPa North 20.4 km/h 20.4 km/h 51 % 0.0 mm 434.0 W/m2 CLR
12:05 9.4 °C -0.2 °C 1022.2 hPa NNW 16.7 km/h 16.7 km/h 51 % 0.0 mm 438.0 W/m2 CLR
12:10 10.0 °C 0.1 °C 1022.2 hPa NNW 19.3 km/h 19.3 km/h 50 % 0.0 mm 441.0 W/m2 CLR
12:15 10.0 °C 0.3 °C 1022.2 hPa NNW 16.7 km/h 16.7 km/h 51 % 0.0 mm 445.0 W/m2 CLR
12:20 10.0 °C 0.3 °C 1021.9 hPa NNW 16.7 km/h 16.7 km/h 51 % 0.0 mm 446.0 W/m2 CLR
12:25 10.0 °C 0.3 °C 1021.9 hPa NNW 16.7 km/h 16.7 km/h 51 % 0.0 mm 450.0 W/m2 CLR
12:30 10.6 °C 0.6 °C 1021.9 hPa NW 22.2 km/h 22.2 km/h 50 % 0.0 mm 450.0 W/m2 CLR
12:35 10.6 °C 0.3 °C 1021.9 hPa NW 18.5 km/h 18.5 km/h 49 % 0.0 mm 454.0 W/m2 CLR
12:40 10.6 °C 0.3 °C 1021.6 hPa NNW 19.3 km/h 19.3 km/h 49 % 0.0 mm 454.0 W/m2 CLR
12:45 10.6 °C 0.3 °C 1021.6 hPa NNW 18.5 km/h 18.5 km/h 49 % 0.0 mm 454.0 W/m2 CLR
12:55 10.6 °C 0.3 °C 1021.2 hPa NW 13.0 km/h 13.0 km/h 49 % 0.0 mm 454.0 W/m2 CLR
13:00 10.6 °C 0.3 °C 1021.2 hPa NNW 17.7 km/h 17.7 km/h 49 % 0.0 mm 454.0 W/m2 CLR
13:05 10.6 °C 0.3 °C 1021.2 hPa NW 18.5 km/h 18.5 km/h 49 % 0.0 mm 452.0 W/m2 CLR
13:15 11.1 °C 0.8 °C 1020.9 hPa NNE 14.8 km/h 14.8 km/h 49 % 0.0 mm 450.0 W/m2 CLR
13:25 11.1 °C 0.5 °C 1020.5 hPa NW 11.3 km/h 11.3 km/h 48 % 0.0 mm 445.0 W/m2 CLR
13:30 11.7 °C 0.7 °C 1020.5 hPa NW 11.1 km/h 11.1 km/h 47 % 0.0 mm 441.0 W/m2 CLR
13:50 11.7 °C 1.0 °C 1019.9 hPa North 14.8 km/h 14.8 km/h 48 % 0.0 mm 424.0 W/m2 CLR
13:55 11.7 °C 1.0 °C 1019.9 hPa North 16.7 km/h 16.7 km/h 48 % 0.0 mm 420.0 W/m2 CLR
14:00 11.7 °C 0.7 °C 1019.9 hPa North 16.1 km/h 16.1 km/h 47 % 0.0 mm 399.0 W/m2 CLR
14:05 12.2 °C 1.5 °C 1019.5 hPa NW 18.5 km/h 18.5 km/h 48 % 0.0 mm 410.0 W/m2 CLR
14:20 11.7 °C 1.0 °C 1019.2 hPa NNE 14.8 km/h 14.8 km/h 48 % 0.0 mm 373.0 W/m2 CLR
14:30 11.1 °C 0.5 °C 1019.2 hPa NNE 11.1 km/h 11.1 km/h 48 % 0.0 mm 376.0 W/m2 CLR
14:35 11.7 °C 1.0 °C 1019.2 hPa Calm     48 % 0.0 mm 371.0 W/m2 CLR
14:40 11.7 °C 1.0 °C 1018.8 hPa Calm     48 % 0.0 mm 350.0 W/m2 CLR
14:45 11.7 °C 1.0 °C 1018.8 hPa NW 9.3 km/h   48 % 0.0 mm 341.0 W/m2 CLR
14:50 11.7 °C 1.0 °C 1018.8 hPa NNE 12.9 km/h 12.9 km/h 48 % 0.0 mm 341.0 W/m2 CLR
14:55 12.2 °C 1.2 °C 1018.8 hPa NNW 18.5 km/h 18.5 km/h 47 % 0.0 mm 330.0 W/m2 CLR
15:00 11.7 °C 0.7 °C 1018.8 hPa NNW 16.7 km/h 16.7 km/h 47 % 0.0 mm 313.0 W/m2 CLR
15:05 12.2 °C 1.2 °C 1018.8 hPa North 18.5 km/h 18.5 km/h 47 % 0.0 mm 308.0 W/m2 CLR
15:10 12.2 °C 0.9 °C 1018.8 hPa NNW 16.1 km/h 16.1 km/h 46 % 0.0 mm 304.0 W/m2 CLR
15:15 12.2 °C 0.9 °C 1018.5 hPa North 13.0 km/h 13.0 km/h 46 % 0.0 mm 279.0 W/m2 CLR
15:20 12.2 °C 0.9 °C 1018.5 hPa NW 18.5 km/h 18.5 km/h 46 % 0.0 mm 278.0 W/m2 CLR
15:25 12.2 °C 0.9 °C 1018.5 hPa NNW 9.3 km/h 9.3 km/h 46 % 0.0 mm 267.0 W/m2 CLR
15:30 12.2 °C 1.2 °C 1018.2 hPa North 9.3 km/h 9.3 km/h 47 % 0.0 mm 258.0 W/m2 CLR
15:35 12.2 °C 1.2 °C 1018.2 hPa NW 13.0 km/h 13.0 km/h 47 % 0.0 mm 255.0 W/m2 CLR
15:45 12.2 °C 1.2 °C 1018.2 hPa NW 18.5 km/h 18.5 km/h 47 % 0.0 mm 223.0 W/m2 CLR
15:50 11.7 °C 0.7 °C 1017.8 hPa NW 16.7 km/h 16.7 km/h 47 % 0.0 mm 211.0 W/m2 CLR
15:55 11.7 °C 0.7 °C 1017.8 hPa NNW 7.4 km/h 7.4 km/h 47 % 0.0 mm 195.0 W/m2 CLR
16:00 11.7 °C 0.4 °C 1017.8 hPa NW 18.5 km/h 18.5 km/h 46 % 0.0 mm 183.0 W/m2 CLR
16:05 11.1 °C -0.1 °C 1017.8 hPa NW 14.8 km/h 14.8 km/h 46 % 0.0 mm 169.0 W/m2 CLR
16:11 11.1 °C 0.2 °C 1017.8 hPa NW 14.8 km/h 14.8 km/h 47 % 0.0 mm 155.0 W/m2 CLR
16:21 11.1 °C -0.1 °C 1017.8 hPa NW 14.8 km/h 14.8 km/h 46 % 0.0 mm 90.0 W/m2 CLR
16:26 10.6 °C -0.6 °C 1017.8 hPa NNW 13.0 km/h 13.0 km/h 46 % 0.0 mm 39.0 W/m2 FEW
16:31 10.6 °C -0.3 °C 1017.5 hPa NW 11.3 km/h 11.3 km/h 47 % 0.0 mm 33.0 W/m2 SCT
16:36 10.6 °C -0.6 °C 1017.5 hPa NNW 8.0 km/h 8.0 km/h 46 % 0.0 mm 86.0 W/m2 CLR
16:37 10.0 °C -1.1 °C 1017.5 hPa NW 5.6 km/h   46 % 0.0 mm 79.0 W/m2 FEW
16:42 9.4 °C -1.6 °C 1017.5 hPa Calm     46 % 0.0 mm 49.0 W/m2 BKN
16:47 9.4 °C -1.6 °C 1017.5 hPa Calm     46 % 0.0 mm 26.0 W/m2 BKN
16:52 8.9 °C -1.8 °C 1017.5 hPa Calm     47 % 0.0 mm 18.0 W/m2 BKN
16:57 8.3 °C -2.3 °C 1017.5 hPa Calm     47 % 0.0 mm 16.0 W/m2 BKN
17:02 7.8 °C -2.6 °C 1017.2 hPa Calm     48 % 0.0 mm 12.0 W/m2 BKN
17:07 7.2 °C -3.1 °C 1017.5 hPa Calm     48 % 0.0 mm 11.0 W/m2 BKN
17:17 6.7 °C -2.8 °C 1017.2 hPa Calm     51 % 0.0 mm 7.0 W/m2 BKN
17:22 6.1 °C -3.0 °C 1017.2 hPa Calm     52 % 0.0 mm 5.0 W/m2 BKN
17:27 6.1 °C -2.8 °C 1017.2 hPa Calm     53 % 0.0 mm 5.0 W/m2 OVC
17:32 6.1 °C -2.8 °C 1017.2 hPa Calm     53 % 0.0 mm 0.0 W/m2 OVC
17:42 5.6 °C -3.6 °C 1016.8 hPa Calm     52 % 0.0 mm 0.0 W/m2 CLR
17:47 5.0 °C -3.6 °C 1016.8 hPa Calm     54 % 0.0 mm 0.0 W/m2 CLR
17:57 4.4 °C -3.3 °C 1017.2 hPa Calm     57 % 0.0 mm 0.0 W/m2 CLR
18:02 4.4 °C -3.3 °C 1017.2 hPa Calm     57 % 0.0 mm 0.0 W/m2 CLR
18:18 3.9 °C -3.2 °C 1016.8 hPa Calm     60 % 0.0 mm 0.0 W/m2 CLR
18:23 3.9 °C -3.2 °C 1016.8 hPa Calm     60 % 0.0 mm 0.0 W/m2 CLR
18:33 3.3 °C -3.3 °C 1017.2 hPa Calm     62 % 0.0 mm 0.0 W/m2 CLR
18:43 2.8 °C -3.6 °C 1016.8 hPa Calm     63 % 0.0 mm 0.0 W/m2 CLR
18:48 2.2 °C -3.9 °C 1016.8 hPa Calm     64 % 0.0 mm 0.0 W/m2 CLR
18:58 1.7 °C -4.2 °C 1016.8 hPa Calm     65 % 0.0 mm 0.0 W/m2 CLR
19:03 1.1 °C -4.7 °C 1017.2 hPa Calm     65 % 0.0 mm 0.0 W/m2 CLR
19:08 1.1 °C -4.7 °C 1017.2 hPa Calm     65 % 0.0 mm 0.0 W/m2 CLR
19:18 0.6 °C -5.1 °C 1017.2 hPa Calm     66 % 0.0 mm 0.0 W/m2 CLR
19:28 0.6 °C -4.9 °C 1017.2 hPa Calm     67 % 0.0 mm 0.0 W/m2 CLR
19:38 0.6 °C -4.7 °C 1017.2 hPa Calm     68 % 0.0 mm 0.0 W/m2 CLR
19:43 0.0 °C -5.0 °C 1017.2 hPa Calm     69 % 0.0 mm 0.0 W/m2 CLR
19:48 0.6 °C -4.5 °C 1016.8 hPa Calm     69 % 0.0 mm 0.0 W/m2 CLR
19:53 0.6 °C -4.5 °C 1016.8 hPa Calm     69 % 0.0 mm 0.0 W/m2 CLR
19:54 0.6 °C -4.5 °C 1016.8 hPa Calm     69 % 0.0 mm 0.0 W/m2 CLR
19:59 0.0 °C -4.8 °C 1016.8 hPa Calm     70 % 0.0 mm 0.0 W/m2 CLR
20:04 0.0 °C -4.6 °C 1016.8 hPa Calm     71 % 0.0 mm 0.0 W/m2 CLR
20:09 0.0 °C -4.4 °C 1016.8 hPa Calm     72 % 0.0 mm 0.0 W/m2 CLR
20:14 0.0 °C -4.4 °C 1016.8 hPa Calm     72 % 0.0 mm 0.0 W/m2 CLR
20:19 0.0 °C -4.4 °C 1016.8 hPa Calm     72 % 0.0 mm 0.0 W/m2 CLR
20:24 -0.6 °C -5.0 °C 1016.8 hPa Calm     72 % 0.0 mm 0.0 W/m2 CLR
20:29 -0.6 °C -5.0 °C 1016.8 hPa Calm     72 % 0.0 mm 0.0 W/m2 CLR
20:34 -0.6 °C -4.8 °C 1016.8 hPa Calm     73 % 0.0 mm 0.0 W/m2 CLR
20:49 -1.1 °C -5.2 °C 1016.5 hPa Calm     74 % 0.0 mm 0.0 W/m2 CLR
20:59 -1.1 °C -5.0 °C 1016.5 hPa Calm     75 % 0.0 mm 0.0 W/m2 CLR
21:04 -1.1 °C -5.0 °C 1016.5 hPa Calm     75 % 0.0 mm 0.0 W/m2 CLR
21:09 -1.1 °C -5.0 °C 1016.1 hPa Calm     75 % 0.0 mm 0.0 W/m2 CLR
21:14 -1.1 °C -5.2 °C 1016.5 hPa Calm     74 % 0.0 mm 0.0 W/m2 CLR
21:29 -1.7 °C -5.5 °C 1016.1 hPa Calm     75 % 0.0 mm 0.0 W/m2 CLR
21:34 -1.7 °C -5.5 °C 1016.1 hPa Calm     75 % 0.0 mm 0.0 W/m2 CLR
21:39 -1.7 °C -5.3 °C 1016.1 hPa Calm     76 % 0.0 mm 0.0 W/m2 CLR
21:44 -1.7 °C -5.3 °C 1016.1 hPa Calm     76 % 0.0 mm 0.0 W/m2 CLR
21:49 -1.7 °C -5.3 °C 1015.8 hPa Calm     76 % 0.0 mm 0.0 W/m2 CLR
21:54 -1.1 °C -4.8 °C 1015.8 hPa Calm     76 % 0.0 mm 0.0 W/m2 CLR
21:59 -1.1 °C -5.0 °C 1015.8 hPa Calm     75 % 0.0 mm 0.0 W/m2 CLR
22:09 -1.1 °C -5.0 °C 1015.8 hPa Calm     75 % 0.0 mm 0.0 W/m2 CLR
22:29 -1.1 °C -4.8 °C 1015.8 hPa Calm     76 % 0.0 mm 0.0 W/m2 CLR
22:34 -1.1 °C -4.8 °C 1015.8 hPa Calm     76 % 0.0 mm 0.0 W/m2 CLR
22:39 -0.6 °C -4.1 °C 1015.8 hPa Calm     77 % 0.0 mm 0.0 W/m2 CLR
22:44 -0.6 °C -3.9 °C 1015.8 hPa Calm     78 % 0.0 mm 0.0 W/m2 CLR
22:49 -0.6 °C -4.1 °C 1015.8 hPa Calm     77 % 0.0 mm 0.0 W/m2 CLR
22:54 -0.6 °C -4.1 °C 1015.8 hPa Calm     77 % 0.0 mm 0.0 W/m2 CLR
23:04 0.0 °C -3.7 °C 1015.5 hPa Calm     76 % 0.0 mm 0.0 W/m2 CLR
23:09 0.0 °C -3.7 °C 1015.5 hPa Calm     76 % 0.0 mm 0.0 W/m2 CLR
23:14 0.6 °C -3.2 °C 1015.5 hPa Calm     76 % 0.0 mm 0.0 W/m2 CLR
23:19 0.0 °C -3.6 °C 1015.5 hPa Calm     77 % 0.0 mm 0.0 W/m2 CLR
23:24 0.0 °C -3.6 °C 1015.5 hPa Calm     77 % 0.0 mm 0.0 W/m2 CLR
23:29 0.0 °C -3.7 °C 1015.5 hPa Calm     76 % 0.0 mm 0.0 W/m2 CLR
23:34 0.0 °C -3.7 °C 1015.5 hPa Calm     76 % 0.0 mm 0.0 W/m2 CLR
23:39 0.0 °C -3.9 °C 1015.5 hPa Calm     75 % 0.0 mm 0.0 W/m2 CLR
23:44 0.0 °C -3.9 °C 1015.1 hPa Calm     75 % 0.0 mm 0.0 W/m2 CLR
23:49 0.0 °C -3.9 °C 1015.5 hPa Calm     75 % 0.0 mm 0.0 W/m2 CLR
23:54 0.0 °C -3.9 °C 1015.1 hPa Calm     75 % 0.0 mm 0.0 W/m2 CLR
23:59 0.0 °C -3.9 °C 1015.1 hPa Calm     75 % 0.0 mm 0.0 W/m2 CLR
Lo Temps de Massalio
Compliments of Weather Underground - 1 mb